Pagina principale
METAR-TAF:

METAR-TAF

Aeroporti :

Mafikeng, Sudafrica

latitudine: 25-47S, longitudine: 025-32E, altezza: 1281 m

Osservazione

Il bollettino è stato emesso 20 minuti fa, alle 03:00 UTC
Vento 3 kt da est
Temperature 17°C
Umidità 82%
Pressione 1022 hPa

METAR: FAMM 240300Z AUTO 10003KT //// // ////// 17/14 Q1022

Ora: 05:20 (03:20 UTC)

Previsione

Il bollettino è stato emesso 18 ore e 20 minuti fa, alle 09:00 UTC
Previsione valida dal 23 alle 10 UTC al 23 alle 18 UTC
Vento 3 kt da direzioni variabili
Visibilità 10 km o più
Nubi sparse ad un'altezza di 3000 ft
Probabilità 40% :
Temporaneamente
dal 23 alle 12 UTC al 23 alle 18 UTC
Poco nuvoloso ad un'altezza di 4000 ft, Cumulonembo.
temporale, pioggia debole

TAF: FAMM 230900Z 2310/2318 VRB03KT 9999 SCT030 TX30/2312Z TN22/2318Z PROB40 TEMPO 2312/2318 -TSRA FEW040CB

Osservazioni e previsioni meteorologiche di più di 4000 aeroporti (messaggi METAR e TAF).

Le stazioni disponibili sono rappresentate dai dischi gialli e rossi sulla carta.

Puntare il mouse per vedere il nome della stazione.

Clicca sopra per visualizzare le osservazioni e previsioni meteorologiche.

Per cambiare la mappa : fare clic sui pulsanti verdi con una croce nera per ingrandire, il pulsante verde con un trattino per diminuire, o sulla freccia verde per le mappe adiacenti.


METAR-TAF: